Time;durP1;ratioP1;P1;durP2;ratioP2;P2;SDS_P1;SDS_P2;PMS_P1;PMS_P2;Temp;Humidity;BMP_temperature;BMP_pressure;BME280_temperature;BME280_humidity;BME280_pressure;Samples;Min_cycle;Max_cycle;Signal;HPM_P1;HPM_P2
2022/12/27 00:02:11;;;;;;;2.92;2.15;;;;;;;;;;6176263;23;20159;-74
2022/12/27 00:04:37;;;;;;;2.23;1.47;;;;;;;;;;6178236;23;20172;-74
2022/12/27 00:07:03;;;;;;;8.43;1.95;;;;;;;;;;6173166;23;20379;-75
2022/12/27 00:09:30;;;;;;;2.07;1.97;;;;;;;;;;6178085;23;20150;-75
2022/12/27 00:11:56;;;;;;;5.97;2.00;;;;;;;;;;6174706;23;20398;-75
2022/12/27 00:14:22;;;;;;;6.27;2.40;;;;;;;;;;6173555;23;20234;-76
2022/12/27 00:16:48;;;;;;;2.20;1.35;;;;;;;;;;6169660;23;20411;-75
2022/12/27 00:19:14;;;;;;;2.55;2.35;;;;;;;;;;6177379;23;20151;-74
2022/12/27 00:21:54;;;;;;;5.00;2.40;;;;;;;;;;6171126;23;20180;-75
2022/12/27 00:24:20;;;;;;;1.67;1.50;;;;;;;;;;6177631;23;20516;-75
2022/12/27 00:26:46;;;;;;;2.08;2.08;;;;;;;;;;6174602;23;20231;-75
2022/12/27 00:29:12;;;;;;;2.47;2.23;;;;;;;;;;6177696;23;20244;-74
2022/12/27 00:31:38;;;;;;;5.60;2.22;;;;;;;;;;6169239;23;20860;-75
2022/12/27 00:34:06;;;;;;;1.97;1.73;;;;;;;;;;6175937;23;20241;-75
2022/12/27 00:36:32;;;;;;;2.90;2.10;;;;;;;;;;6173179;23;20394;-75
2022/12/27 00:38:58;;;;;;;4.53;2.27;;;;;;;;;;6177361;23;20585;-74
2022/12/27 00:41:24;;;;;;;3.60;2.20;;;;;;;;;;6174113;23;20400;-74
2022/12/27 00:43:50;;;;;;;3.80;2.05;;;;;;;;;;6177095;23;20392;-74
2022/12/27 00:46:16;;;;;;;3.85;2.30;;;;;;;;;;6172759;23;20486;-75
2022/12/27 00:48:43;;;;;;;2.55;2.30;;;;;;;;;;6177209;23;20593;-74
2022/12/27 00:51:17;;;;;;;4.20;2.15;;;;;;;;;;6173066;23;20223;-75
2022/12/27 00:53:43;;;;;;;4.82;2.28;;;;;;;;;;6177682;23;20162;-75
2022/12/27 00:56:11;;;;;;;7.18;2.10;;;;;;;;;;6173221;23;20222;-75
2022/12/27 00:58:37;;;;;;;4.10;2.22;;;;;;;;;;6177668;23;20156;-75
2022/12/27 01:01:08;;;;;;;1.60;1.60;;;;;;;;;;6173992;23;20148;-75
2022/12/27 01:03:34;;;;;;;2.67;2.30;;;;;;;;;;6177511;23;20190;-74
2022/12/27 01:06:04;;;;;;;1.93;1.83;;;;;;;;;;6172998;23;21018;-74
2022/12/27 01:08:30;;;;;;;3.75;2.65;;;;;;;;;;6177269;23;20393;-74
2022/12/27 01:10:56;;;;;;;3.60;3.17;;;;;;;;;;6174960;23;20226;-74
2022/12/27 01:13:22;;;;;;;4.50;2.45;;;;;;;;;;6177497;23;20152;-74
2022/12/27 01:15:48;;;;;;;4.57;2.50;;;;;;;;;;6174197;23;20235;-75
2022/12/27 01:18:14;;;;;;;3.50;1.90;;;;;;;;;;6177473;23;20391;-75
2022/12/27 01:20:40;;;;;;;9.13;2.47;;;;;;;;;;6174439;23;20308;-74
2022/12/27 01:23:06;;;;;;;2.60;2.10;;;;;;;;;;6174122;23;20471;-74
2022/12/27 01:25:32;;;;;;;3.53;1.97;;;;;;;;;;6177372;23;20409;-73
2022/12/27 01:27:58;;;;;;;2.37;1.67;;;;;;;;;;6172566;23;20414;-74
2022/12/27 01:30:24;;;;;;;2.90;1.73;;;;;;;;;;6170446;23;20476;-75
2022/12/27 01:32:50;;;;;;;3.77;2.30;;;;;;;;;;6175105;23;20381;-74
2022/12/27 01:35:16;;;;;;;2.63;2.43;;;;;;;;;;6176996;23;20426;-74
2022/12/27 01:37:42;;;;;;;3.55;3.35;;;;;;;;;;6172883;23;20509;-74
2022/12/27 01:40:08;;;;;;;2.25;2.05;;;;;;;;;;6176908;23;20616;-75
2022/12/27 01:42:54;;;;;;;2.30;2.10;;;;;;;;;;6174464;23;20160;-75
2022/12/27 01:45:20;;;;;;;17.05;2.45;;;;;;;;;;6177316;23;20169;-76
2022/12/27 01:47:46;;;;;;;2.27;2.17;;;;;;;;;;6175695;23;20765;-74
2022/12/27 01:50:15;;;;;;;2.10;2.00;;;;;;;;;;6176513;23;20384;-74
2022/12/27 01:52:47;;;;;;;1.95;1.88;;;;;;;;;;6174976;23;20203;-75
2022/12/27 01:55:19;;;;;;;1.55;1.55;;;;;;;;;;6177465;23;20138;-75
2022/12/27 01:57:45;;;;;;;6.03;2.92;;;;;;;;;;6174915;23;20152;-75
2022/12/27 02:00:12;;;;;;;5.75;2.22;;;;;;;;;;6176531;23;20159;-75
2022/12/27 02:02:38;;;;;;;6.43;1.80;;;;;;;;;;6174203;23;20153;-75
2022/12/27 02:05:04;;;;;;;3.80;2.30;;;;;;;;;;6174843;23;20233;-74
2022/12/27 02:07:41;;;;;;;6.75;2.10;;;;;;;;;;6173435;23;20535;-75
2022/12/27 02:10:07;;;;;;;1.83;1.73;;;;;;;;;;6176809;23;20212;-74
2022/12/27 02:12:33;;;;;;;2.60;1.70;;;;;;;;;;6174640;23;20176;-74
2022/12/27 02:15:01;;;;;;;3.13;2.40;;;;;;;;;;6176714;23;20548;-74
2022/12/27 02:17:30;;;;;;;2.33;1.33;;;;;;;;;;6173550;23;20383;-74
2022/12/27 02:20:12;;;;;;;3.20;2.55;;;;;;;;;;6176280;23;20374;-73
2022/12/27 02:25:45;;;;;;;4.22;1.80;;;;;;;;;;6176674;23;20187;-75
2022/12/27 02:28:24;;;;;;;6.88;2.50;;;;;;;;;;6174295;23;20523;-75
2022/12/27 02:30:52;;;;;;;1.65;1.55;;;;;;;;;;6168165;23;20169;-75
2022/12/27 02:33:20;;;;;;;9.82;1.73;;;;;;;;;;6175182;23;20152;-74
2022/12/27 02:35:59;;;;;;;5.88;1.48;;;;;;;;;;6178185;23;20243;-74
2022/12/27 02:38:30;;;;;;;9.50;2.35;;;;;;;;;;6174915;23;20227;-74
2022/12/27 02:55:14;;;;;;;11.05;1.85;;;;;;;;;;6178412;23;20211;-74
2022/12/27 02:57:43;;;;;;;2.50;2.30;;;;;;;;;;6176152;23;20214;-74
2022/12/27 03:03:22;;;;;;;3.65;3.40;;;;;;;;;;6174060;23;20222;-75
2022/12/27 03:06:38;;;;;;;16.95;2.88;;;;;;;;;;6178539;23;20169;-76
2022/12/27 03:08:40;;;;;;;6.00;1.50;;;;;;;;;;6178222;23;20163;-75
2022/12/27 03:16:54;;;;;;;3.88;1.70;;;;;;;;;;6176035;23;20172;-76
2022/12/27 03:25:26;;;;;;;2.10;1.97;;;;;;;;;;6178215;23;20546;-75
2022/12/27 03:33:30;;;;;;;2.55;2.35;;;;;;;;;;6179140;23;20367;-75
2022/12/27 03:39:01;;;;;;;1.73;1.63;;;;;;;;;;6178830;23;20642;-75
2022/12/27 03:44:23;;;;;;;2.17;1.85;;;;;;;;;;6177804;23;20223;-75
2022/12/27 03:46:57;;;;;;;2.10;1.70;;;;;;;;;;6174957;23;20248;-74
2022/12/27 03:49:23;;;;;;;2.42;1.50;;;;;;;;;;6178353;23;20222;-73
2022/12/27 03:51:49;;;;;;;3.03;1.40;;;;;;;;;;6174323;23;20186;-75
2022/12/27 03:54:20;;;;;;;2.70;2.50;;;;;;;;;;6178451;23;20381;-74
2022/12/27 03:56:46;;;;;;;5.67;1.93;;;;;;;;;;6175560;23;20349;-74
2022/12/27 03:59:12;;;;;;;6.33;2.33;;;;;;;;;;6177502;23;20473;-74
2022/12/27 04:01:38;;;;;;;2.30;2.10;;;;;;;;;;6174998;23;20400;-75
2022/12/27 04:04:04;;;;;;;3.60;2.00;;;;;;;;;;6176040;23;20187;-74
2022/12/27 04:06:30;;;;;;;5.65;2.10;;;;;;;;;;6174135;23;20423;-74
2022/12/27 04:36:21;;;;;;;2.20;2.00;;;;;;;;;;6175297;23;20930;-75
2022/12/27 04:38:47;;;;;;;4.53;2.33;;;;;;;;;;6176043;23;20159;-74
2022/12/27 04:55:11;;;;;;;4.88;2.10;;;;;;;;;;6177108;23;20355;-74
2022/12/27 04:57:37;;;;;;;3.75;2.10;;;;;;;;;;6172026;23;20166;-74
2022/12/27 05:02:48;;;;;;;4.55;1.80;;;;;;;;;;6174730;23;20934;-75
2022/12/27 05:05:14;;;;;;;1.52;1.42;;;;;;;;;;6176771;23;20203;-75
2022/12/27 05:15:56;;;;;;;1.67;1.52;;;;;;;;;;6177052;23;20252;-74
2022/12/27 05:18:22;;;;;;;5.47;2.40;;;;;;;;;;6173569;23;20160;-74
2022/12/27 05:20:48;;;;;;;1.80;1.70;;;;;;;;;;6177208;23;20383;-74
2022/12/27 05:25:59;;;;;;;3.78;2.00;;;;;;;;;;6176732;23;20652;-75
2022/12/27 05:28:25;;;;;;;2.17;1.87;;;;;;;;;;6172767;23;20155;-75
2022/12/27 05:30:51;;;;;;;4.00;1.50;;;;;;;;;;6176613;23;20379;-74
2022/12/27 05:33:17;;;;;;;13.35;2.40;;;;;;;;;;6172770;23;20207;-75
2022/12/27 05:35:43;;;;;;;3.50;3.40;;;;;;;;;;6176443;23;20706;-75
2022/12/27 05:38:09;;;;;;;2.30;1.33;;;;;;;;;;6172762;23;20379;-75
2022/12/27 05:40:35;;;;;;;2.00;2.00;;;;;;;;;;6177118;23;20463;-75
2022/12/27 05:43:02;;;;;;;8.43;1.80;;;;;;;;;;6172808;23;20217;-76
2022/12/27 05:45:28;;;;;;;2.20;2.20;;;;;;;;;;6176651;23;20407;-75
2022/12/27 05:47:54;;;;;;;2.28;2.17;;;;;;;;;;6173302;23;20202;-74
2022/12/27 05:50:20;;;;;;;2.45;2.35;;;;;;;;;;6176624;23;20160;-75
2022/12/27 05:52:46;;;;;;;4.50;2.05;;;;;;;;;;6174800;23;20151;-75
2022/12/27 05:55:12;;;;;;;5.50;2.87;;;;;;;;;;6176401;23;20788;-74
2022/12/27 05:57:38;;;;;;;1.63;1.53;;;;;;;;;;6173862;23;20406;-73
2022/12/27 06:00:05;;;;;;;5.07;1.70;;;;;;;;;;6177409;23;20387;-75
2022/12/27 06:02:31;;;;;;;1.42;1.42;;;;;;;;;;6167896;23;20160;-74
2022/12/27 06:04:57;;;;;;;6.00;2.17;;;;;;;;;;6178198;23;20167;-75
2022/12/27 06:07:23;;;;;;;2.37;1.63;;;;;;;;;;6175314;23;20214;-74
2022/12/27 06:09:49;;;;;;;12.57;3.43;;;;;;;;;;6179111;23;20354;-75
2022/12/27 06:12:15;;;;;;;2.53;2.30;;;;;;;;;;6175404;23;20383;-75
2022/12/27 06:14:41;;;;;;;2.53;2.33;;;;;;;;;;6179580;23;20406;-75
2022/12/27 06:17:07;;;;;;;2.97;2.00;;;;;;;;;;6175094;23;20389;-75
2022/12/27 06:19:33;;;;;;;3.88;2.55;;;;;;;;;;6179086;23;20414;-74
2022/12/27 06:21:59;;;;;;;5.30;2.03;;;;;;;;;;6175177;23;20167;-75
2022/12/27 06:24:25;;;;;;;4.60;1.90;;;;;;;;;;6175198;23;20422;-75
2022/12/27 06:26:51;;;;;;;7.05;2.17;;;;;;;;;;6178115;23;20415;-74
2022/12/27 06:29:17;;;;;;;5.97;2.13;;;;;;;;;;6174742;23;20238;-76
2022/12/27 06:31:43;;;;;;;2.83;2.63;;;;;;;;;;6178436;23;20653;-75
2022/12/27 06:34:10;;;;;;;4.30;2.30;;;;;;;;;;6171251;23;20433;-75
2022/12/27 06:36:36;;;;;;;2.60;2.33;;;;;;;;;;6174003;23;20167;-75
2022/12/27 06:39:02;;;;;;;5.47;2.17;;;;;;;;;;6178349;23;20144;-74
2022/12/27 06:41:28;;;;;;;2.15;2.05;;;;;;;;;;6175382;23;20489;-75
2022/12/27 06:43:55;;;;;;;2.20;2.20;;;;;;;;;;6176735;23;20517;-74
2022/12/27 06:46:23;;;;;;;2.77;2.13;;;;;;;;;;6175510;23;20750;-74
2022/12/27 06:48:49;;;;;;;3.90;2.45;;;;;;;;;;6177225;23;20708;-74
2022/12/27 06:51:16;;;;;;;2.35;2.10;;;;;;;;;;6176114;23;20156;-73
2022/12/27 06:53:42;;;;;;;3.97;2.67;;;;;;;;;;6176396;23;20163;-73
2022/12/27 06:56:09;;;;;;;8.70;2.30;;;;;;;;;;6177591;23;20140;-73
2022/12/27 06:58:35;;;;;;;2.88;2.00;;;;;;;;;;6176430;23;20156;-75
2022/12/27 07:01:15;;;;;;;2.27;2.13;;;;;;;;;;6177814;23;20149;-75
2022/12/27 07:03:41;;;;;;;4.87;2.27;;;;;;;;;;6168281;23;20370;-75
2022/12/27 07:06:08;;;;;;;4.73;2.23;;;;;;;;;;6177716;23;20395;-74
2022/12/27 07:08:36;;;;;;;2.38;2.38;;;;;;;;;;6174490;23;20379;-74
2022/12/27 07:11:03;;;;;;;4.43;2.33;;;;;;;;;;6172014;23;20219;-74
2022/12/27 07:13:34;;;;;;;7.43;2.65;;;;;;;;;;6175043;23;20159;-73
2022/12/27 07:16:00;;;;;;;3.70;2.50;;;;;;;;;;6177991;23;20140;-73
2022/12/27 07:18:26;;;;;;;8.37;2.30;;;;;;;;;;6174075;23;20148;-74
2022/12/27 07:20:52;;;;;;;4.77;2.67;;;;;;;;;;6178132;23;20363;-74
2022/12/27 07:23:18;;;;;;;3.60;2.00;;;;;;;;;;6175438;23;20902;-75
2022/12/27 07:25:43;;;;;;;3.33;2.17;;;;;;;;;;6178045;23;20418;-74
2022/12/27 07:28:10;;;;;;;10.50;2.90;;;;;;;;;;6176459;23;20382;-75
2022/12/27 07:30:38;;;;;;;4.93;2.77;;;;;;;;;;6175280;23;20390;-74
2022/12/27 07:33:04;;;;;;;2.60;2.30;;;;;;;;;;6175709;23;21174;-75
2022/12/27 07:35:30;;;;;;;4.80;3.03;;;;;;;;;;6178198;23;20399;-74
2022/12/27 07:38:02;;;;;;;2.05;1.90;;;;;;;;;;6174302;23;20868;-75
2022/12/27 07:40:28;;;;;;;5.50;2.38;;;;;;;;;;6177833;23;20180;-75
2022/12/27 07:42:54;;;;;;;3.60;1.60;;;;;;;;;;6173692;23;20164;-75
2022/12/27 07:45:20;;;;;;;2.83;1.53;;;;;;;;;;6177603;23;20411;-74
2022/12/27 07:47:46;;;;;;;3.63;2.00;;;;;;;;;;6173737;23;20541;-74
2022/12/27 07:50:12;;;;;;;4.00;2.00;;;;;;;;;;6177632;23;20505;-74
2022/12/27 07:52:38;;;;;;;8.35;2.63;;;;;;;;;;6174670;23;20375;-75
2022/12/27 07:55:04;;;;;;;8.23;2.83;;;;;;;;;;6177211;23;20244;-74
2022/12/27 07:57:30;;;;;;;7.10;2.20;;;;;;;;;;6173698;23;20387;-76
2022/12/27 07:59:56;;;;;;;3.53;2.87;;;;;;;;;;6177427;23;20825;-76
2022/12/27 08:02:22;;;;;;;6.47;3.00;;;;;;;;;;6173394;23;20482;-77
2022/12/27 08:04:48;;;;;;;2.17;1.97;;;;;;;;;;6173058;23;20410;-76
2022/12/27 08:07:15;;;;;;;5.82;3.38;;;;;;;;;;6177319;23;20782;-75
2022/12/27 08:09:43;;;;;;;2.58;2.33;;;;;;;;;;6168819;23;20160;-76
2022/12/27 08:12:09;;;;;;;2.20;1.70;;;;;;;;;;6177258;23;20152;-75
2022/12/27 08:14:35;;;;;;;3.03;2.25;;;;;;;;;;6175715;23;20156;-75
2022/12/27 08:17:06;;;;;;;4.38;2.63;;;;;;;;;;6177365;23;20160;-75
2022/12/27 08:19:32;;;;;;;2.67;2.15;;;;;;;;;;6174697;23;20180;-76
2022/12/27 08:21:58;;;;;;;2.60;2.50;;;;;;;;;;6177197;23;20226;-75
2022/12/27 08:24:24;;;;;;;4.73;2.37;;;;;;;;;;6172834;23;20183;-75
2022/12/27 08:26:50;;;;;;;4.53;1.87;;;;;;;;;;6172223;23;20418;-75
2022/12/27 08:29:16;;;;;;;5.47;2.97;;;;;;;;;;6174019;23;20395;-75
2022/12/27 08:31:42;;;;;;;5.57;2.87;;;;;;;;;;6175358;23;21123;-74
2022/12/27 08:34:07;;;;;;;4.57;2.47;;;;;;;;;;6176588;23;20368;-74
2022/12/27 08:36:33;;;;;;;4.40;2.00;;;;;;;;;;6172923;23;20386;-76
2022/12/27 08:38:59;;;;;;;6.53;2.90;;;;;;;;;;6176648;23;20375;-76
2022/12/27 08:41:25;;;;;;;2.90;1.75;;;;;;;;;;6174293;23;20406;-76
2022/12/27 08:43:51;;;;;;;9.93;2.63;;;;;;;;;;6175427;23;20469;-75
2022/12/27 08:46:18;;;;;;;6.70;2.27;;;;;;;;;;6173074;23;20411;-76
2022/12/27 08:48:46;;;;;;;11.85;2.92;;;;;;;;;;6172872;23;20375;-75
2022/12/27 08:51:12;;;;;;;2.17;2.17;;;;;;;;;;6173806;23;20152;-74
2022/12/27 08:53:38;;;;;;;4.20;1.83;;;;;;;;;;6173546;23;20156;-76
2022/12/27 08:56:04;;;;;;;3.93;2.60;;;;;;;;;;6177498;23;20404;-76
2022/12/27 08:58:30;;;;;;;2.92;2.72;;;;;;;;;;6174095;23;20869;-75
2022/12/27 09:00:56;;;;;;;3.40;3.20;;;;;;;;;;6176184;23;20486;-74
2022/12/27 09:03:22;;;;;;;2.83;2.20;;;;;;;;;;6172824;23;20148;-74
2022/12/27 09:05:48;;;;;;;2.30;2.20;;;;;;;;;;6176709;23;20429;-76
2022/12/27 09:08:15;;;;;;;2.10;1.95;;;;;;;;;;6173895;23;20457;-75
2022/12/27 09:10:41;;;;;;;7.93;2.78;;;;;;;;;;6171843;23;20148;-74
2022/12/27 09:13:07;;;;;;;6.50;2.60;;;;;;;;;;6171970;23;20477;-75
2022/12/27 09:15:33;;;;;;;7.80;2.00;;;;;;;;;;6176490;23;20521;-74
2022/12/27 09:21:15;;;;;;;2.65;2.42;;;;;;;;;;6220075;23;20329;-90
2022/12/27 09:23:46;;;;;;;4.60;2.50;;;;;;;;;;6194096;23;20151;-92
2022/12/27 09:26:15;;;;;;;2.10;2.00;;;;;;;;;;6198526;23;20187;-91
2022/12/27 09:28:43;;;;;;;5.70;3.50;;;;;;;;;;6188542;23;20246;-90
2022/12/27 09:31:11;;;;;;;2.25;2.15;;;;;;;;;;6188154;23;20495;-90
2022/12/27 09:33:37;;;;;;;1.70;1.40;;;;;;;;;;6188795;23;20169;-89
2022/12/27 09:36:07;;;;;;;2.80;2.58;;;;;;;;;;6190919;23;20438;-88
2022/12/27 09:38:36;;;;;;;2.90;2.28;;;;;;;;;;6188029;23;20332;-90
2022/12/27 09:41:05;;;;;;;2.92;2.63;;;;;;;;;;6181232;23;20220;-90
2022/12/27 09:43:50;;;;;;;2.43;2.23;;;;;;;;;;6177055;23;20305;-88
2022/12/27 09:46:18;;;;;;;6.07;3.30;;;;;;;;;;6179545;23;20491;-87
2022/12/27 09:48:54;;;;;;;3.70;2.30;;;;;;;;;;6177980;23;20170;-88
2022/12/27 09:51:29;;;;;;;2.90;2.17;;;;;;;;;;6184465;23;20894;-89
2022/12/27 09:53:55;;;;;;;7.07;2.75;;;;;;;;;;6180850;23;20159;-88
2022/12/27 09:56:24;;;;;;;3.95;2.53;;;;;;;;;;6178802;23;20167;-89
2022/12/27 09:59:10;;;;;;;8.32;2.30;;;;;;;;;;6177502;23;20174;-90
2022/12/27 10:01:41;;;;;;;10.02;2.38;;;;;;;;;;6211047;23;20238;-88
2022/12/27 10:04:11;;;;;;;7.13;2.33;;;;;;;;;;6181681;23;20600;-88
2022/12/27 10:06:55;;;;;;;4.20;1.90;;;;;;;;;;6180662;23;20727;-86
2022/12/27 10:09:21;;;;;;;2.90;2.80;;;;;;;;;;6181161;23;20872;-87
2022/12/27 10:12:05;;;;;;;2.00;1.90;;;;;;;;;;6196250;23;20395;-87
2022/12/27 10:14:46;;;;;;;3.73;1.73;;;;;;;;;;6194629;23;20398;-88
2022/12/27 10:17:37;;;;;;;1.80;1.60;;;;;;;;;;6216697;23;20371;-89
2022/12/27 10:20:12;;;;;;;1.97;1.97;;;;;;;;;;6155096;23;20667;-89
2022/12/27 10:22:46;;;;;;;3.27;2.30;;;;;;;;;;6178002;23;20433;-86
2022/12/27 10:25:13;;;;;;;1.80;1.50;;;;;;;;;;6189896;23;20462;-87
2022/12/27 10:27:39;;;;;;;2.83;1.80;;;;;;;;;;6161635;23;20448;-78
2022/12/27 10:30:13;;;;;;;10.10;2.60;;;;;;;;;;6141331;23;20388;-77
2022/12/27 10:32:39;;;;;;;1.88;1.73;;;;;;;;;;6135721;23;21072;-77
2022/12/27 10:35:05;;;;;;;3.27;2.77;;;;;;;;;;6146831;23;20211;-78
2022/12/27 10:37:34;;;;;;;3.67;1.80;;;;;;;;;;6141518;23;20447;-76
2022/12/27 10:40:07;;;;;;;3.13;2.77;;;;;;;;;;6142972;23;20376;-76
2022/12/27 10:42:37;;;;;;;3.33;1.70;;;;;;;;;;6146802;23;20384;-77
2022/12/27 10:45:21;;;;;;;4.33;2.10;;;;;;;;;;6141754;23;20432;-75
2022/12/27 10:47:48;;;;;;;4.40;2.23;;;;;;;;;;6143711;23;20379;-78
2022/12/27 10:50:15;;;;;;;5.93;2.07;;;;;;;;;;6145140;23;20384;-77
2022/12/27 10:52:45;;;;;;;5.20;2.17;;;;;;;;;;6152046;23;20864;-77
2022/12/27 10:55:30;;;;;;;10.77;2.40;;;;;;;;;;6151207;23;20380;-78
2022/12/27 10:57:59;;;;;;;3.73;1.87;;;;;;;;;;6150495;23;20403;-76
2022/12/27 11:00:28;;;;;;;2.53;2.33;;;;;;;;;;6153537;23;20392;-77
2022/12/27 11:03:02;;;;;;;4.07;2.33;;;;;;;;;;6144888;23;20372;-77
2022/12/27 11:05:32;;;;;;;3.53;1.90;;;;;;;;;;6147224;23;20404;-76
2022/12/27 11:08:00;;;;;;;3.33;1.87;;;;;;;;;;6144162;23;20388;-76
2022/12/27 11:10:27;;;;;;;5.77;2.67;;;;;;;;;;6148061;23;20349;-77
2022/12/27 11:13:02;;;;;;;3.27;2.10;;;;;;;;;;6145634;23;20415;-76
2022/12/27 11:15:30;;;;;;;2.50;1.90;;;;;;;;;;6146079;23;20380;-77
2022/12/27 11:17:57;;;;;;;3.43;1.70;;;;;;;;;;6144049;23;20387;-77
2022/12/27 11:20:28;;;;;;;1.63;1.53;;;;;;;;;;6147730;23;21052;-76
2022/12/27 11:22:54;;;;;;;3.70;2.07;;;;;;;;;;6142911;23;20511;-76
2022/12/27 11:25:27;;;;;;;1.47;1.47;;;;;;;;;;6147203;23;20611;-76
2022/12/27 11:27:59;;;;;;;2.10;1.90;;;;;;;;;;6144712;23;20983;-76
2022/12/27 11:30:28;;;;;;;4.40;2.17;;;;;;;;;;6144299;23;21234;-75
2022/12/27 11:32:54;;;;;;;3.43;2.00;;;;;;;;;;6139505;23;20392;-77
2022/12/27 11:35:22;;;;;;;5.80;2.13;;;;;;;;;;6148398;23;20430;-77
2022/12/27 11:37:50;;;;;;;10.23;2.47;;;;;;;;;;6144991;23;20384;-75
2022/12/27 11:40:24;;;;;;;2.33;2.17;;;;;;;;;;6146930;23;20455;-76
2022/12/27 11:42:52;;;;;;;3.60;2.27;;;;;;;;;;6093460;23;20399;-77
2022/12/27 11:45:18;;;;;;;2.60;1.90;;;;;;;;;;6146987;23;20412;-77
2022/12/27 11:47:44;;;;;;;3.23;1.70;;;;;;;;;;6145536;23;20389;-77
2022/12/27 11:50:14;;;;;;;2.40;1.53;;;;;;;;;;6147327;23;20379;-77
2022/12/27 11:52:43;;;;;;;1.53;1.43;;;;;;;;;;6119368;23;20392;-78
2022/12/27 11:55:28;;;;;;;7.20;2.13;;;;;;;;;;6146659;23;20384;-76
2022/12/27 11:57:54;;;;;;;6.90;2.20;;;;;;;;;;6141279;23;20411;-75
2022/12/27 12:00:23;;;;;;;3.00;2.77;;;;;;;;;;6145299;23;20380;-76
2022/12/27 12:02:55;;;;;;;2.53;1.57;;;;;;;;;;6141204;23;20900;-76
2022/12/27 12:05:40;;;;;;;2.30;1.70;;;;;;;;;;6145086;23;20495;-76
2022/12/27 12:08:25;;;;;;;3.80;2.63;;;;;;;;;;6141515;23;20481;-74
2022/12/27 12:11:00;;;;;;;2.30;2.17;;;;;;;;;;6119494;23;20372;-75
2022/12/27 12:13:49;;;;;;;2.30;2.20;;;;;;;;;;6138205;23;20462;-76
2022/12/27 12:16:18;;;;;;;2.70;2.40;;;;;;;;;;6145713;23;20355;-73
2022/12/27 12:18:44;;;;;;;1.97;1.77;;;;;;;;;;6139957;23;20677;-76
2022/12/27 12:21:29;;;;;;;6.90;2.33;;;;;;;;;;6146168;23;20357;-79
2022/12/27 12:24:07;;;;;;;9.20;3.60;;;;;;;;;;6140841;23;20688;-76
2022/12/27 12:26:36;;;;;;;7.03;2.60;;;;;;;;;;6143613;23;20511;-77
2022/12/27 12:29:17;;;;;;;2.77;1.90;;;;;;;;;;6139358;23;20388;-76
2022/12/27 12:31:49;;;;;;;1.57;1.57;;;;;;;;;;6132643;23;20410;-78
2022/12/27 12:34:18;;;;;;;2.75;2.10;;;;;;;;;;6144975;23;20381;-76
2022/12/27 12:37:02;;;;;;;17.30;12.07;;;;;;;;;;6138875;23;20674;-76
2022/12/27 12:39:28;;;;;;;4.07;2.00;;;;;;;;;;6138491;23;20210;-75
2022/12/27 12:41:54;;;;;;;2.63;2.53;;;;;;;;;;6113873;23;20626;-74
2022/12/27 12:44:23;;;;;;;4.43;1.97;;;;;;;;;;6139613;23;20389;-77
2022/12/27 12:47:05;;;;;;;2.10;1.80;;;;;;;;;;6137838;23;20832;-75
2022/12/27 12:49:43;;;;;;;4.07;2.63;;;;;;;;;;6143221;23;20418;-76
2022/12/27 12:52:17;;;;;;;2.60;1.90;;;;;;;;;;6141202;23;20941;-76
2022/12/27 12:54:43;;;;;;;5.17;1.83;;;;;;;;;;6142172;23;20375;-79
2022/12/27 12:57:24;;;;;;;3.40;1.70;;;;;;;;;;6140505;23;20817;-76
2022/12/27 13:00:03;;;;;;;4.30;2.53;;;;;;;;;;6139083;23;20919;-76
2022/12/27 13:02:48;;;;;;;4.13;2.30;;;;;;;;;;6139219;23;20457;-76
2022/12/27 13:05:22;;;;;;;2.60;1.90;;;;;;;;;;6142825;23;20894;-77
2022/12/27 13:07:48;;;;;;;2.23;2.03;;;;;;;;;;6139493;23;20457;-76
2022/12/27 13:10:33;;;;;;;2.17;1.97;;;;;;;;;;6142369;23;20380;-76
2022/12/27 13:13:05;;;;;;;1.97;1.50;;;;;;;;;;6140603;23;20919;-77
2022/12/27 13:15:31;;;;;;;2.97;2.00;;;;;;;;;;6142847;23;20378;-76
2022/12/27 13:18:05;;;;;;;1.40;1.30;;;;;;;;;;6139191;23;20742;-76
2022/12/27 13:20:49;;;;;;;4.77;1.93;;;;;;;;;;6144557;23;20435;-76
2022/12/27 13:23:21;;;;;;;1.87;1.77;;;;;;;;;;6136335;23;20635;-77
2022/12/27 13:25:55;;;;;;;3.37;2.03;;;;;;;;;;6142938;23;20470;-77
2022/12/27 13:28:21;;;;;;;6.60;4.20;;;;;;;;;;6139965;23;20438;-75
2022/12/27 13:30:58;;;;;;;12.90;7.23;;;;;;;;;;6139295;23;20562;-77
2022/12/27 13:33:33;;;;;;;5.03;2.03;;;;;;;;;;6140343;23;20413;-75
2022/12/27 13:35:58;;;;;;;5.03;1.90;;;;;;;;;;6145191;23;20752;-76
2022/12/27 13:38:43;;;;;;;2.47;1.57;;;;;;;;;;6140794;23;20468;-76
2022/12/27 13:41:23;;;;;;;3.97;1.70;;;;;;;;;;6144499;23;20438;-76
2022/12/27 13:44:01;;;;;;;4.20;1.70;;;;;;;;;;6115539;23;20383;-76
2022/12/27 13:46:30;;;;;;;2.20;1.87;;;;;;;;;;6144785;23;20506;-76
2022/12/27 13:48:57;;;;;;;2.30;2.00;;;;;;;;;;6138807;23;20404;-76
2022/12/27 13:51:23;;;;;;;2.33;2.23;;;;;;;;;;6140491;23;20403;-76
2022/12/27 13:53:49;;;;;;;3.17;1.50;;;;;;;;;;6146117;23;20356;-76
2022/12/27 13:56:30;;;;;;;3.23;1.90;;;;;;;;;;6140191;23;21179;-76
2022/12/27 13:59:15;;;;;;;4.90;2.17;;;;;;;;;;6146564;23;20453;-77
2022/12/27 14:01:54;;;;;;;4.50;2.10;;;;;;;;;;6114190;23;20462;-77
2022/12/27 14:04:38;;;;;;;8.10;1.90;;;;;;;;;;6134347;23;20391;-76
2022/12/27 14:07:11;;;;;;;1.80;1.70;;;;;;;;;;6112479;23;20454;-76
2022/12/27 14:09:40;;;;;;;6.90;1.73;;;;;;;;;;6144782;23;20821;-76
2022/12/27 14:12:13;;;;;;;2.13;2.03;;;;;;;;;;6140950;23;20376;-76
2022/12/27 14:14:40;;;;;;;5.90;1.70;;;;;;;;;;6144737;23;20383;-76
2022/12/27 14:17:18;;;;;;;4.33;2.07;;;;;;;;;;6114469;23;20770;-74
2022/12/27 14:19:56;;;;;;;3.40;2.40;;;;;;;;;;6144473;23;20386;-76
2022/12/27 14:22:25;;;;;;;2.57;2.37;;;;;;;;;;6140792;23;20411;-75
2022/12/27 14:25:10;;;;;;;6.33;1.77;;;;;;;;;;6145138;23;20404;-75
2022/12/27 14:27:36;;;;;;;2.97;1.97;;;;;;;;;;6116731;23;20420;-76
2022/12/27 14:30:17;;;;;;;2.60;1.70;;;;;;;;;;6146569;23;20481;-74
2022/12/27 14:32:55;;;;;;;2.23;1.90;;;;;;;;;;6143081;23;21004;-75
2022/12/27 14:35:22;;;;;;;3.73;1.70;;;;;;;;;;6146007;23;20925;-76
2022/12/27 14:38:08;;;;;;;1.17;1.13;;;;;;;;;;6142690;23;20382;-76
2022/12/27 14:40:53;;;;;;;2.53;2.33;;;;;;;;;;6120883;23;20380;-76
2022/12/27 14:43:25;;;;;;;4.20;1.97;;;;;;;;;;6147000;23;20392;-75
2022/12/27 14:45:51;;;;;;;5.17;2.27;;;;;;;;;;6140444;23;20416;-76
2022/12/27 14:48:36;;;;;;;5.03;1.80;;;;;;;;;;6146321;23;20349;-75
2022/12/27 14:51:05;;;;;;;9.57;2.70;;;;;;;;;;6141841;23;20467;-75
2022/12/27 14:53:49;;;;;;;2.83;1.60;;;;;;;;;;6146390;23;20715;-74
2022/12/27 14:56:21;;;;;;;5.30;1.97;;;;;;;;;;6140864;23;20702;-76
2022/12/27 14:59:03;;;;;;;2.33;2.00;;;;;;;;;;6146471;23;20341;-76
2022/12/27 15:01:48;;;;;;;3.40;1.87;;;;;;;;;;6141916;23;20482;-77
2022/12/27 15:04:26;;;;;;;2.80;1.33;;;;;;;;;;6144990;23;20372;-74
2022/12/27 15:07:10;;;;;;;2.30;1.60;;;;;;;;;;6143463;23;20442;-77
2022/12/27 15:10:01;;;;;;;3.13;2.30;;;;;;;;;;6146178;23;20387;-75
2022/12/27 15:12:46;;;;;;;5.83;2.63;;;;;;;;;;6142252;23;20427;-75
2022/12/27 15:15:31;;;;;;;6.10;3.30;;;;;;;;;;6144884;23;20715;-76
2022/12/27 15:17:57;;;;;;;6.83;2.07;;;;;;;;;;6141805;23;20385;-77
2022/12/27 15:20:23;;;;;;;3.93;1.90;;;;;;;;;;6145725;23;20594;-78
2022/12/27 15:22:52;;;;;;;7.33;2.07;;;;;;;;;;6142042;23;20722;-75
2022/12/27 15:25:41;;;;;;;6.90;2.00;;;;;;;;;;6145114;23;20495;-75
2022/12/27 15:28:07;;;;;;;3.03;2.10;;;;;;;;;;6145928;23;20420;-74
2022/12/27 15:30:46;;;;;;;2.10;2.00;;;;;;;;;;6143467;23;20424;-75
2022/12/27 15:33:35;;;;;;;2.97;2.43;;;;;;;;;;6138720;23;20372;-75
2022/12/27 15:36:15;;;;;;;2.27;2.07;;;;;;;;;;6138450;23;20392;-75
2022/12/27 15:38:49;;;;;;;4.13;1.43;;;;;;;;;;6145568;23;20364;-76
2022/12/27 15:41:24;;;;;;;1.90;1.90;;;;;;;;;;6145573;23;20379;-73
2022/12/27 15:44:02;;;;;;;5.50;2.00;;;;;;;;;;6141443;23;20383;-75
2022/12/27 15:46:46;;;;;;;7.33;2.20;;;;;;;;;;6141547;23;20416;-76
2022/12/27 15:49:15;;;;;;;2.00;1.90;;;;;;;;;;6145114;23;20407;-75
2022/12/27 15:51:51;;;;;;;8.60;2.50;;;;;;;;;;6142416;23;20593;-76
2022/12/27 15:54:20;;;;;;;4.43;1.63;;;;;;;;;;6146110;23;20367;-75
2022/12/27 15:56:55;;;;;;;5.13;1.60;;;;;;;;;;6141788;23;20443;-75
2022/12/27 15:59:34;;;;;;;3.40;1.30;;;;;;;;;;6145517;23;20500;-75
2022/12/27 16:02:29;;;;;;;1.50;1.40;;;;;;;;;;6142540;23;20887;-75
2022/12/27 16:04:58;;;;;;;4.30;3.20;;;;;;;;;;6114255;23;20419;-75
2022/12/27 16:07:37;;;;;;;7.30;2.10;;;;;;;;;;6142807;23;20407;-75
2022/12/27 16:10:34;;;;;;;2.20;1.67;;;;;;;;;;6143572;23;20376;-74
2022/12/27 16:13:12;;;;;;;1.53;1.40;;;;;;;;;;6014671;23;20484;-78
2022/12/27 16:15:49;;;;;;;1.30;1.30;;;;;;;;;;6143569;23;20615;-77
2022/12/27 16:18:18;;;;;;;1.30;1.30;;;;;;;;;;6120454;23;20446;-75
2022/12/27 16:21:01;;;;;;;2.60;2.40;;;;;;;;;;6116741;23;20471;-75
2022/12/27 16:23:38;;;;;;;1.73;1.17;;;;;;;;;;6146124;23;20908;-74
2022/12/27 16:26:06;;;;;;;4.97;2.10;;;;;;;;;;6142067;23;20789;-74
2022/12/27 16:28:33;;;;;;;3.77;1.63;;;;;;;;;;6143592;23;20427;-75
2022/12/27 16:31:00;;;;;;;1.53;1.50;;;;;;;;;;6146016;23;20380;-74
2022/12/27 16:33:32;;;;;;;1.97;1.87;;;;;;;;;;6115369;23;20422;-76
2022/12/27 16:36:16;;;;;;;1.73;1.70;;;;;;;;;;6145247;23;20404;-76
2022/12/27 16:38:45;;;;;;;1.87;1.73;;;;;;;;;;6135119;23;20383;-74
2022/12/27 16:41:17;;;;;;;4.10;2.53;;;;;;;;;;6145318;23;20380;-75
2022/12/27 16:44:03;;;;;;;4.23;1.70;;;;;;;;;;6140431;23;20574;-76
2022/12/27 16:46:48;;;;;;;4.00;1.57;;;;;;;;;;6143150;23;20514;-75